createdAt,value
2018-05-18T00:01:12.498Z,57.60
2018-05-18T00:03:16.771Z,58.00
2018-05-18T00:05:20.115Z,59.10
2018-05-18T00:07:25.467Z,58.70
2018-05-18T00:09:28.833Z,59.30
2018-05-18T00:11:32.312Z,59.50
2018-05-18T00:13:35.711Z,58.00
2018-05-18T00:15:39.082Z,57.90
2018-05-18T00:17:42.412Z,59.40
2018-05-18T00:19:46.867Z,58.80
2018-05-18T00:21:50.513Z,59.20
2018-05-18T00:23:53.871Z,59.40
2018-05-18T00:25:57.176Z,60.60
2018-05-18T00:28:00.745Z,61.10
2018-05-18T00:30:04.214Z,61.40
2018-05-18T00:32:07.741Z,61.40
2018-05-18T00:34:11.951Z,62.50
2018-05-18T00:36:15.299Z,62.40
2018-05-18T00:38:18.688Z,62.70
2018-05-18T00:40:22.067Z,63.00
2018-05-18T00:42:25.475Z,63.40
2018-05-18T00:44:28.846Z,64.00
2018-05-18T00:46:32.226Z,64.60
2018-05-18T00:48:35.606Z,65.20
2018-05-18T00:50:39.852Z,66.50
2018-05-18T00:52:43.350Z,67.10
2018-05-18T00:54:48.794Z,66.90
2018-05-18T00:56:52.188Z,66.10
2018-05-18T00:58:55.552Z,68.00
2018-05-18T01:00:58.908Z,67.50
2018-05-18T01:03:04.291Z,68.00
2018-05-18T01:05:09.194Z,67.90
2018-05-18T01:07:12.586Z,67.20
2018-05-18T01:09:16.153Z,68.60
2018-05-18T01:11:19.782Z,67.80
2018-05-18T01:13:23.220Z,67.30
2018-05-18T01:15:27.335Z,68.20
2018-05-18T01:17:31.608Z,68.10
2018-05-18T01:19:35.066Z,68.20
2018-05-18T01:21:38.469Z,69.00
2018-05-18T01:23:41.955Z,69.30
2018-05-18T01:25:49.455Z,70.70
2018-05-18T01:27:53.565Z,71.80
2018-05-18T01:29:56.953Z,71.80
2018-05-18T01:32:03.178Z,72.30
2018-05-18T01:34:07.641Z,72.90
2018-05-18T01:36:11.028Z,72.20
2018-05-18T01:38:14.430Z,75.60
2018-05-18T01:40:17.747Z,74.60
2018-05-18T01:42:21.156Z,74.20
2018-05-18T01:44:24.681Z,74.30
2018-05-18T01:46:28.835Z,74.80
2018-05-18T01:48:33.044Z,74.00
2018-05-18T01:50:37.142Z,74.50
2018-05-18T01:52:40.490Z,74.80
2018-05-18T01:54:43.880Z,75.60
2018-05-18T01:58:55.508Z,75.30
2018-05-18T02:00:58.868Z,75.80
2018-05-18T02:03:02.188Z,75.00
2018-05-18T02:05:05.605Z,75.90
2018-05-18T02:07:08.955Z,76.10
2018-05-18T02:09:12.322Z,76.40
2018-05-18T02:11:15.757Z,77.20
2018-05-18T02:13:19.811Z,77.60
2018-05-18T02:15:23.180Z,77.60
2018-05-18T02:17:27.549Z,78.00
2018-05-18T02:19:30.967Z,77.50
2018-05-18T02:21:35.077Z,78.80
2018-05-18T02:23:41.235Z,78.00
2018-05-18T02:25:44.554Z,78.20
2018-05-18T02:27:48.042Z,79.10
2018-05-18T02:30:01.215Z,79.20
2018-05-18T02:32:04.583Z,78.50
2018-05-18T02:34:08.792Z,77.40
2018-05-18T02:36:12.104Z,77.30
2018-05-18T02:38:15.520Z,77.80
2018-05-18T02:40:19.680Z,77.00
2018-05-18T02:42:23.048Z,77.10
2018-05-18T02:44:27.218Z,77.70
2018-05-18T02:46:30.642Z,78.50
2018-05-18T02:48:34.113Z,77.70
2018-05-18T02:50:37.458Z,77.80
2018-05-18T02:52:40.794Z,77.00
2018-05-18T02:54:44.142Z,77.80
2018-05-18T02:56:47.553Z,78.30
2018-05-18T02:58:50.898Z,77.60
2018-05-18T03:00:54.278Z,78.10
2018-05-18T03:02:57.637Z,77.80
2018-05-18T03:05:01.056Z,76.60
2018-05-18T03:07:04.385Z,76.60
2018-05-18T03:09:07.973Z,77.50
2018-05-18T03:11:11.305Z,77.00
2018-05-18T03:13:14.720Z,76.60
2018-05-18T03:15:18.159Z,76.60
2018-05-18T03:17:24.069Z,76.60
2018-05-18T03:19:28.246Z,77.00
2018-05-18T03:21:32.755Z,77.00
2018-05-18T03:23:39.938Z,76.40
2018-05-18T03:25:44.240Z,76.60
2018-05-18T03:27:47.567Z,76.50
2018-05-18T03:29:50.934Z,77.40
2018-05-18T03:31:54.262Z,77.20
2018-05-18T03:34:02.946Z,78.20
2018-05-18T03:36:07.126Z,77.00
2018-05-18T03:38:10.476Z,77.20
2018-05-18T03:40:13.832Z,76.80
2018-05-18T03:42:17.385Z,76.80
2018-05-18T03:44:21.527Z,76.80
2018-05-18T03:46:26.233Z,77.00
2018-05-18T03:48:29.588Z,76.60
2018-05-18T03:50:33.037Z,76.60
2018-05-18T03:52:36.604Z,78.50
2018-05-18T03:54:39.956Z,77.20
2018-05-18T03:56:43.361Z,76.90
2018-05-18T03:58:47.692Z,76.70
2018-05-18T04:00:51.138Z,77.00
2018-05-18T04:03:06.339Z,77.70
2018-05-18T04:05:21.442Z,77.00
2018-05-18T04:07:36.703Z,77.10
2018-05-18T04:09:40.807Z,77.50
2018-05-18T04:11:44.147Z,77.50
2018-05-18T04:13:48.195Z,76.90
2018-05-18T04:15:53.159Z,77.50
2018-05-18T04:17:56.498Z,77.60
2018-05-18T04:19:59.948Z,77.70
2018-05-18T04:22:03.393Z,77.90
2018-05-18T04:24:06.852Z,78.30
2018-05-18T04:26:10.223Z,78.00
2018-05-18T04:28:13.665Z,78.50
2018-05-18T04:30:17.102Z,79.10
2018-05-18T04:32:20.472Z,79.00
2018-05-18T04:34:23.853Z,78.60
2018-05-18T04:36:35.043Z,79.30
2018-05-18T04:38:38.432Z,81.20
2018-05-18T04:40:41.846Z,81.70
2018-05-18T04:42:46.021Z,82.10
2018-05-18T04:44:49.546Z,81.80
2018-05-18T04:46:53.736Z,88.70
2018-05-18T04:48:57.101Z,88.50
2018-05-18T04:51:01.332Z,90.00
2018-05-18T04:53:04.625Z,89.40
2018-05-18T04:55:07.972Z,89.60
2018-05-18T04:57:11.359Z,90.20
2018-05-18T04:59:14.707Z,90.30
2018-05-18T05:01:18.180Z,90.70
2018-05-18T05:03:21.560Z,91.00
2018-05-18T05:05:26.120Z,91.50
2018-05-18T05:07:29.440Z,91.30
2018-05-18T05:09:32.921Z,91.30
2018-05-18T05:11:36.383Z,91.60
2018-05-18T05:13:41.689Z,91.30
2018-05-18T05:15:45.059Z,91.20
2018-05-18T05:17:48.531Z,91.10
2018-05-18T05:19:51.940Z,91.60
2018-05-18T05:21:55.469Z,91.50
2018-05-18T05:23:58.984Z,91.10
2018-05-18T05:26:02.503Z,90.90
2018-05-18T05:28:06.100Z,90.90
2018-05-18T05:30:09.481Z,90.90
2018-05-18T05:32:14.181Z,91.80
2018-05-18T05:34:17.530Z,91.40
2018-05-18T05:36:20.943Z,91.70
2018-05-18T05:38:24.359Z,92.20
2018-05-18T05:40:27.815Z,91.50
2018-05-18T05:42:31.934Z,91.70
2018-05-18T05:44:37.367Z,91.90
2018-05-18T05:46:41.585Z,90.90
2018-05-18T05:48:45.087Z,91.00
2018-05-18T05:50:56.459Z,90.80
2018-05-18T05:52:59.872Z,90.60
2018-05-18T05:55:03.251Z,90.40
2018-05-18T05:57:06.615Z,90.00
2018-05-18T05:59:10.832Z,91.00
2018-05-18T06:01:14.300Z,91.10
2018-05-18T06:03:17.649Z,90.90
2018-05-18T06:05:21.884Z,90.80
2018-05-18T06:07:25.968Z,90.60
2018-05-18T06:09:29.317Z,89.40
2018-05-18T06:11:32.836Z,89.30
2018-05-18T06:13:37.490Z,90.00
2018-05-18T06:15:40.883Z,89.40
2018-05-18T06:17:44.254Z,88.00
2018-05-18T06:19:48.870Z,88.50
2018-05-18T06:21:53.367Z,86.30
2018-05-18T06:23:57.384Z,86.30
2018-05-18T06:26:01.198Z,86.80
2018-05-18T06:28:04.549Z,86.50
2018-05-18T06:30:07.936Z,85.20
2018-05-18T06:32:12.057Z,85.40
2018-05-18T06:34:15.491Z,85.50
2018-05-18T06:36:18.920Z,86.30
2018-05-18T06:38:22.298Z,83.60
2018-05-18T06:40:25.689Z,83.70
2018-05-18T06:42:29.166Z,84.60
2018-05-18T06:44:33.302Z,82.30
2018-05-18T06:46:36.717Z,82.30
2018-05-18T06:48:40.193Z,82.30
2018-05-18T06:50:44.393Z,81.90
2018-05-18T06:52:47.772Z,81.90
2018-05-18T06:54:51.184Z,78.40
2018-05-18T06:56:55.683Z,78.50
2018-05-18T06:58:59.046Z,75.10
2018-05-18T07:01:02.473Z,72.60
2018-05-18T07:03:06.918Z,68.30
2018-05-18T07:05:10.414Z,68.30
2018-05-18T07:07:13.828Z,66.90
2018-05-18T07:09:17.378Z,66.60
2018-05-18T07:11:21.913Z,67.70
2018-05-18T07:13:25.377Z,64.50
2018-05-18T07:15:28.836Z,63.60
2018-05-18T07:17:33.308Z,53.60
2018-05-18T07:19:37.450Z,53.00
2018-05-18T07:21:41.817Z,55.80
2018-05-18T07:23:45.215Z,55.80
2018-05-18T07:25:48.611Z,53.60
2018-05-18T07:27:51.932Z,53.70
2018-05-18T07:29:55.344Z,48.20
2018-05-18T07:31:59.508Z,45.60
2018-05-18T07:34:04.149Z,45.70
2018-05-18T07:36:07.638Z,43.60
2018-05-18T07:38:11.001Z,40.50
2018-05-18T07:40:14.432Z,43.70
2018-05-18T07:42:19.059Z,41.80
2018-05-18T07:44:22.405Z,39.40
2018-05-18T07:46:26.984Z,40.40
2018-05-18T07:48:31.429Z,39.30
2018-05-18T07:50:34.863Z,36.20
2018-05-18T07:52:38.280Z,32.80
2018-05-18T07:56:50.760Z,31.90
2018-05-18T07:58:54.276Z,31.80
2018-05-18T08:00:57.757Z,30.50
2018-05-18T08:03:02.458Z,31.60
2018-05-18T08:05:05.824Z,31.10
2018-05-18T08:07:09.212Z,30.00
2018-05-18T08:09:13.109Z,29.70
2018-05-18T08:11:18.205Z,28.20
2018-05-18T08:13:21.641Z,26.60
2018-05-18T08:15:25.048Z,26.50
2018-05-18T08:17:31.286Z,25.70
2018-05-18T08:19:40.871Z,24.20
2018-05-18T08:21:44.406Z,23.50
2018-05-18T08:23:47.829Z,24.10
2018-05-18T08:25:51.460Z,22.10
2018-05-18T08:27:54.857Z,20.50
2018-05-18T08:29:58.204Z,22.30
2018-05-18T08:32:04.574Z,21.90
2018-05-18T08:34:09.896Z,22.00
2018-05-18T08:36:14.525Z,20.50
2018-05-18T08:38:17.956Z,17.70
2018-05-18T08:40:22.360Z,18.40
2018-05-18T08:42:25.770Z,18.70
2018-05-18T08:44:29.205Z,16.50
2018-05-18T08:46:33.674Z,17.60
2018-05-18T08:48:38.264Z,20.40
2018-05-18T08:50:41.718Z,21.30
2018-05-18T08:52:45.093Z,19.70
2018-05-18T08:54:49.624Z,20.10
2018-05-18T08:56:53.329Z,14.00
2018-05-18T08:58:57.701Z,15.20
2018-05-18T09:01:01.284Z,18.90
2018-05-18T09:03:05.228Z,15.60
2018-05-18T09:05:08.701Z,15.20
2018-05-18T09:07:12.545Z,15.20
2018-05-18T09:09:17.098Z,14.80
2018-05-18T09:11:20.791Z,13.70
2018-05-18T09:13:26.222Z,15.30
2018-05-18T09:15:29.614Z,17.30
2018-05-18T09:17:38.287Z,16.90
2018-05-18T09:19:42.690Z,16.20
2018-05-18T09:21:46.263Z,16.00
2018-05-18T09:23:49.643Z,14.00
2018-05-18T09:28:00.777Z,11.50
2018-05-18T09:30:04.207Z,11.80
2018-05-18T09:32:07.698Z,12.70
2018-05-18T09:34:11.183Z,12.80
2018-05-18T09:36:14.565Z,8.60
2018-05-18T09:38:19.740Z,11.80
2018-05-18T09:40:27.812Z,11.80
2018-05-18T09:42:32.114Z,11.30
2018-05-18T09:44:35.584Z,7.90
2018-05-18T09:46:40.101Z,8.70
2018-05-18T09:48:43.850Z,8.80
2018-05-18T09:50:49.205Z,8.50
2018-05-18T09:52:53.025Z,8.50
2018-05-18T09:54:56.608Z,9.30
2018-05-18T09:56:59.880Z,7.00
2018-05-18T09:59:04.812Z,7.20
2018-05-18T10:01:08.228Z,6.40
2018-05-18T10:03:12.010Z,4.30
2018-05-18T10:05:16.372Z,5.00
2018-05-18T10:07:19.892Z,6.10
2018-05-18T10:09:23.311Z,4.50
2018-05-18T10:11:39.409Z,5.50
2018-05-18T10:13:42.738Z,5.90
2018-05-18T10:15:46.883Z,6.30
2018-05-18T10:17:51.092Z,5.30
2018-05-18T10:19:54.496Z,5.50
2018-05-18T10:22:00.879Z,7.60
2018-05-18T10:24:04.383Z,7.30
2018-05-18T10:26:08.974Z,2.00
2018-05-18T10:28:13.226Z,3.70
2018-05-18T10:30:18.951Z,3.90
2018-05-18T10:32:23.199Z,3.80
2018-05-18T10:34:27.820Z,3.40
2018-05-18T10:36:32.060Z,3.20
2018-05-18T10:38:35.539Z,3.10
2018-05-18T10:40:40.539Z,2.70
2018-05-18T10:42:44.008Z,3.10
2018-05-18T10:44:48.866Z,4.70
2018-05-18T10:46:52.390Z,3.60
2018-05-18T10:48:55.831Z,2.90
2018-05-18T10:51:01.397Z,2.30
2018-05-18T10:53:08.460Z,2.00
2018-05-18T10:55:12.023Z,1.90
2018-05-18T10:57:16.306Z,1.70
2018-05-18T10:59:20.454Z,1.70
2018-05-18T11:01:24.651Z,1.00
2018-05-18T11:03:28.118Z,1.00
2018-05-18T11:05:31.581Z,1.10
2018-05-18T11:07:36.196Z,2.80
2018-05-18T11:09:39.975Z,2.60
2018-05-18T11:11:43.732Z,1.10
2018-05-18T11:13:47.305Z,1.00
2018-05-18T11:15:50.739Z,1.00
2018-05-18T11:17:55.077Z,2.70
2018-05-18T11:19:58.463Z,3.00
2018-05-18T11:22:02.746Z,1.00
2018-05-18T11:24:06.548Z,1.00
2018-05-18T11:26:10.697Z,2.50
2018-05-18T11:28:18.304Z,3.30
2018-05-18T11:30:23.830Z,3.30
2018-05-18T11:32:27.940Z,1.40
2018-05-18T11:34:32.020Z,1.00
2018-05-18T11:36:38.952Z,1.00
2018-05-18T11:38:42.646Z,1.00
2018-05-18T11:40:48.244Z,1.00
2018-05-18T11:42:52.151Z,1.00
2018-05-18T11:44:56.301Z,1.00
2018-05-18T11:47:03.349Z,1.00
2018-05-18T11:49:08.976Z,1.00
2018-05-18T11:51:15.585Z,1.00
2018-05-18T11:53:21.290Z,1.00
2018-05-18T11:55:25.910Z,1.00
2018-05-18T11:57:30.282Z,1.00
2018-05-18T11:59:35.702Z,1.00
2018-05-18T12:01:39.859Z,1.00
2018-05-18T12:03:43.778Z,1.00
2018-05-18T12:05:53.418Z,1.00
2018-05-18T12:07:59.489Z,1.00
2018-05-18T12:10:05.593Z,1.00
2018-05-18T12:12:11.678Z,1.00
2018-05-18T12:14:16.432Z,1.00
2018-05-18T12:16:21.897Z,1.00
2018-05-18T12:18:26.934Z,1.00
2018-05-18T12:20:39.414Z,1.00
2018-05-18T12:22:45.561Z,1.00
2018-05-18T12:24:50.299Z,1.00
2018-05-18T12:26:54.395Z,1.00
2018-05-18T12:28:59.525Z,1.00
2018-05-18T12:33:12.568Z,1.00
2018-05-18T12:35:16.118Z,1.00
2018-05-18T12:37:21.466Z,1.00
2018-05-18T12:39:28.648Z,1.00
2018-05-18T12:41:36.286Z,1.00
2018-05-18T12:43:40.326Z,1.00
2018-05-18T12:45:50.718Z,1.00
2018-05-18T12:47:54.234Z,1.00
2018-05-18T12:49:58.847Z,1.00
2018-05-18T12:52:03.032Z,1.00
2018-05-18T12:54:07.464Z,1.00
2018-05-18T12:56:11.768Z,1.00
2018-05-18T12:58:15.260Z,1.00
2018-05-18T13:00:19.702Z,1.00
2018-05-18T13:02:23.155Z,1.00
2018-05-18T13:04:26.966Z,1.00
2018-05-18T13:06:31.135Z,1.00
2018-05-18T13:08:34.621Z,1.00
2018-05-18T13:10:38.823Z,1.00
2018-05-18T13:12:43.107Z,1.00
2018-05-18T13:14:47.706Z,1.00
2018-05-18T13:16:51.821Z,1.00
2018-05-18T13:21:34.918Z,1.00
2018-05-18T13:23:39.221Z,1.00
2018-05-18T13:25:42.944Z,1.00
2018-05-18T13:27:46.503Z,1.00
2018-05-18T13:29:51.524Z,1.00
2018-05-18T13:31:55.772Z,1.00
2018-05-18T13:34:00.951Z,1.00
2018-05-18T13:36:06.058Z,1.00
2018-05-18T13:38:09.617Z,1.00
2018-05-18T13:40:13.008Z,1.00
2018-05-18T13:42:16.402Z,1.00
2018-05-18T13:44:20.059Z,1.00
2018-05-18T13:46:25.018Z,1.00
2018-05-18T13:48:29.614Z,1.00
2018-05-18T13:50:33.231Z,1.00
2018-05-18T13:52:41.995Z,1.00
2018-05-18T13:54:47.233Z,1.00
2018-05-18T13:56:52.105Z,1.00
2018-05-18T13:58:55.648Z,1.00
2018-05-18T14:00:59.079Z,1.00
2018-05-18T14:03:03.515Z,1.00
2018-05-18T14:07:15.910Z,1.00
2018-05-18T14:09:19.354Z,1.00
2018-05-18T14:11:23.843Z,1.00
2018-05-18T14:13:35.954Z,1.00
2018-05-18T14:15:39.565Z,1.00
2018-05-18T14:17:43.039Z,1.00
2018-05-18T14:19:46.722Z,1.00
2018-05-18T14:21:50.995Z,1.00
2018-05-18T14:23:54.425Z,1.00
2018-05-18T14:25:57.871Z,1.00
2018-05-18T14:28:02.149Z,1.00
2018-05-18T14:30:07.910Z,1.00
2018-05-18T14:32:11.336Z,1.00
2018-05-18T14:34:15.537Z,1.00
2018-05-18T14:36:19.009Z,1.10
2018-05-18T14:38:23.923Z,1.00
2018-05-18T14:40:27.385Z,1.00
2018-05-18T14:42:30.882Z,1.00
2018-05-18T14:44:38.773Z,1.00
2018-05-18T14:46:42.298Z,1.00
2018-05-18T14:48:45.728Z,1.00
2018-05-18T14:50:49.955Z,1.00
2018-05-18T14:52:53.507Z,1.00
2018-05-18T14:54:57.696Z,1.00
2018-05-18T14:57:01.250Z,1.00
2018-05-18T14:59:04.686Z,1.00
2018-05-18T15:01:08.195Z,1.00
2018-05-18T15:03:11.765Z,1.00
2018-05-18T15:05:15.266Z,1.00
2018-05-18T15:07:18.896Z,1.00
2018-05-18T15:09:22.421Z,1.00
2018-05-18T15:11:26.050Z,1.00
2018-05-18T15:13:29.515Z,1.00
2018-05-18T15:15:33.046Z,2.20
2018-05-18T15:17:36.528Z,3.00
2018-05-18T15:19:40.097Z,2.80
2018-05-18T15:21:43.459Z,1.10
2018-05-18T15:23:46.912Z,1.40
2018-05-18T15:25:50.341Z,2.40
2018-05-18T15:27:55.109Z,1.70
2018-05-18T15:29:58.627Z,2.50
2018-05-18T15:32:03.108Z,2.50
2018-05-18T15:34:06.705Z,2.60
2018-05-18T15:36:10.168Z,1.90
2018-05-18T15:38:17.406Z,2.50
2018-05-18T15:40:20.956Z,2.60
2018-05-18T15:42:25.153Z,2.80
2018-05-18T15:44:28.606Z,2.90
2018-05-18T15:46:33.638Z,1.00
2018-05-18T15:48:37.520Z,2.30
2018-05-18T15:50:41.370Z,2.00
2018-05-18T15:52:46.418Z,1.10
2018-05-18T15:54:50.587Z,1.10
2018-05-18T15:56:53.985Z,1.10
2018-05-18T15:59:00.412Z,1.00
2018-05-18T16:01:05.531Z,1.00
2018-05-18T16:03:09.448Z,1.00
2018-05-18T16:05:13.002Z,1.00
2018-05-18T16:07:16.472Z,2.20
2018-05-18T16:09:19.970Z,2.60
2018-05-18T16:11:24.243Z,1.00
2018-05-18T16:13:28.578Z,1.00
2018-05-18T16:15:32.967Z,2.20
2018-05-18T16:17:37.607Z,1.00
2018-05-18T16:19:41.302Z,1.00
2018-05-18T16:23:53.888Z,2.20
2018-05-18T16:25:57.436Z,3.20
2018-05-18T16:28:01.445Z,3.40
2018-05-18T16:30:05.279Z,3.80
2018-05-18T16:32:09.211Z,2.20
2018-05-18T16:34:13.500Z,1.80
2018-05-18T16:36:17.740Z,2.50
2018-05-18T16:38:22.128Z,1.30
2018-05-18T16:40:25.728Z,1.60
2018-05-18T16:42:33.006Z,2.00
2018-05-18T16:44:36.803Z,2.50
2018-05-18T16:46:40.306Z,4.00
2018-05-18T16:48:45.241Z,4.60
2018-05-18T16:50:49.269Z,4.50
2018-05-18T16:52:53.591Z,6.10
2018-05-18T16:54:57.107Z,5.80
2018-05-18T16:57:01.360Z,7.10
2018-05-18T16:59:04.855Z,6.90
2018-05-18T17:01:08.347Z,7.00
2018-05-18T17:03:12.761Z,6.00
2018-05-18T17:05:18.522Z,7.40
2018-05-18T17:07:23.166Z,6.60
2018-05-18T17:09:28.147Z,6.40
2018-05-18T17:11:33.064Z,7.60
2018-05-18T17:13:37.230Z,7.20
2018-05-18T17:15:40.600Z,7.10
2018-05-18T17:17:44.053Z,6.90
2018-05-18T17:19:47.501Z,6.40
2018-05-18T17:21:50.919Z,7.20
2018-05-18T17:23:54.299Z,7.00
2018-05-18T17:25:57.836Z,8.30
2018-05-18T17:28:01.142Z,8.80
2018-05-18T17:30:04.581Z,8.70
2018-05-18T17:32:08.134Z,8.30
2018-05-18T17:34:11.600Z,9.00
2018-05-18T17:36:15.079Z,8.40
2018-05-18T17:38:18.474Z,9.10
2018-05-18T17:40:21.934Z,9.10
2018-05-18T17:42:28.530Z,8.40
2018-05-18T17:44:32.692Z,10.00
2018-05-18T17:46:36.350Z,9.90
2018-05-18T17:48:39.853Z,10.90
2018-05-18T17:50:43.248Z,11.10
2018-05-18T17:52:46.764Z,9.60
2018-05-18T17:54:51.369Z,9.80
2018-05-18T17:56:55.721Z,9.80
2018-05-18T17:58:59.135Z,9.90
2018-05-18T18:01:02.578Z,10.80
2018-05-18T18:03:06.847Z,11.70
2018-05-18T18:05:11.104Z,11.80
2018-05-18T18:07:14.599Z,11.80
2018-05-18T18:09:18.255Z,11.80
2018-05-18T18:11:21.673Z,11.30
2018-05-18T18:13:25.070Z,12.20
2018-05-18T18:15:29.809Z,10.80
2018-05-18T18:17:34.878Z,12.20
2018-05-18T18:19:38.315Z,11.40
2018-05-18T18:21:41.795Z,11.70
2018-05-18T18:23:45.270Z,12.60
2018-05-18T18:25:48.945Z,13.30
2018-05-18T18:27:52.413Z,13.70
2018-05-18T18:29:57.166Z,15.00
2018-05-18T18:32:00.620Z,15.50
2018-05-18T18:34:04.022Z,15.70
2018-05-18T18:36:07.500Z,16.20
2018-05-18T18:38:11.777Z,15.90
2018-05-18T18:40:15.159Z,16.50
2018-05-18T18:42:19.326Z,16.00
2018-05-18T18:44:22.794Z,15.90
2018-05-18T18:46:27.055Z,15.30
2018-05-18T18:48:30.771Z,15.30
2018-05-18T18:50:34.297Z,15.30
2018-05-18T18:52:37.837Z,15.40
2018-05-18T18:54:42.136Z,15.00
2018-05-18T18:56:45.677Z,15.00
2018-05-18T18:58:49.144Z,14.80
2018-05-18T19:00:53.176Z,14.30
2018-05-18T19:02:57.178Z,14.80
2018-05-18T19:05:00.777Z,15.20
2018-05-18T19:07:04.476Z,14.90
2018-05-18T19:09:07.959Z,15.30
2018-05-18T19:11:11.338Z,15.20
2018-05-18T19:13:15.599Z,15.10
2018-05-18T19:15:20.274Z,16.10
2018-05-18T19:17:26.498Z,15.90
2018-05-18T19:19:29.890Z,15.50
2018-05-18T19:21:33.326Z,15.80
2018-05-18T19:23:36.986Z,16.20
2018-05-18T19:25:41.114Z,16.20
2018-05-18T19:27:45.302Z,16.70
2018-05-18T19:29:48.801Z,16.80
2018-05-18T19:31:53.080Z,16.00
2018-05-18T19:33:57.239Z,16.60
2018-05-18T19:36:00.718Z,16.80
2018-05-18T19:38:05.019Z,17.20
2018-05-18T19:40:10.617Z,17.00
2018-05-18T19:42:14.061Z,17.40
2018-05-18T19:44:18.650Z,18.00
2018-05-18T19:46:26.950Z,17.80
2018-05-18T19:48:30.936Z,17.90
2018-05-18T19:50:34.437Z,18.30
2018-05-18T19:52:38.887Z,18.60
2018-05-18T19:54:42.498Z,18.70
2018-05-18T19:56:46.014Z,18.70
2018-05-18T19:58:49.507Z,20.10
2018-05-18T20:00:52.908Z,20.10
2018-05-18T20:02:56.430Z,20.90
2018-05-18T20:04:59.968Z,19.90
2018-05-18T20:07:03.456Z,20.80
2018-05-18T20:09:07.125Z,20.70
2018-05-18T20:11:11.559Z,20.50
2018-05-18T20:13:15.097Z,20.50
2018-05-18T20:15:18.586Z,21.20
2018-05-18T20:17:22.087Z,21.90
2018-05-18T20:19:25.558Z,22.20
2018-05-18T20:21:29.075Z,22.60
2018-05-18T20:23:32.777Z,22.80
2018-05-18T20:25:36.561Z,22.90
2018-05-18T20:27:39.963Z,24.30
2018-05-18T20:29:43.358Z,24.50
2018-05-18T20:31:47.564Z,25.10
2018-05-18T20:33:51.018Z,25.60
2018-05-18T20:35:55.350Z,25.50
2018-05-18T20:38:00.588Z,26.00
2018-05-18T20:40:04.068Z,25.90
2018-05-18T20:42:08.007Z,26.20
2018-05-18T20:44:11.506Z,26.60
2018-05-18T20:46:15.112Z,27.20
2018-05-18T20:48:18.523Z,27.30
2018-05-18T20:50:21.881Z,28.30
2018-05-18T20:52:27.279Z,30.10
2018-05-18T20:54:31.499Z,31.00
2018-05-18T20:56:34.898Z,31.40
2018-05-18T20:58:38.458Z,32.30
2018-05-18T21:00:41.847Z,31.90
2018-05-18T21:02:45.237Z,33.10
2018-05-18T21:04:48.799Z,33.00
2018-05-18T21:06:53.192Z,33.10
2018-05-18T21:08:58.653Z,33.10
2018-05-18T21:11:02.048Z,32.70
2018-05-18T21:13:06.450Z,32.90
2018-05-18T21:15:10.687Z,34.00
2018-05-18T21:17:14.117Z,33.90
2018-05-18T21:19:17.622Z,34.30
2018-05-18T21:21:22.081Z,34.80
2018-05-18T21:23:25.495Z,36.50
2018-05-18T21:25:32.159Z,35.60
2018-05-18T21:27:35.615Z,35.50
2018-05-18T21:29:39.343Z,36.50
2018-05-18T21:31:42.724Z,37.10
2018-05-18T21:33:51.367Z,38.60
2018-05-18T21:35:54.751Z,39.10
2018-05-18T21:37:58.915Z,40.90
2018-05-18T21:40:02.294Z,40.90
2018-05-18T21:42:05.766Z,41.20
2018-05-18T21:44:09.926Z,40.60
2018-05-18T21:46:14.316Z,40.30
2018-05-18T21:48:18.431Z,43.40
2018-05-18T21:50:21.960Z,43.30
2018-05-18T21:52:25.710Z,44.70
2018-05-18T21:54:29.208Z,45.10
2018-05-18T21:56:32.609Z,45.70
2018-05-18T21:58:36.123Z,46.90
2018-05-18T22:00:39.517Z,47.40
2018-05-18T22:02:42.983Z,47.90
2018-05-18T22:04:55.470Z,48.20
2018-05-18T22:06:58.814Z,48.10
2018-05-18T22:09:02.893Z,48.60
2018-05-18T22:11:06.259Z,50.20
2018-05-18T22:13:09.744Z,49.70
2018-05-18T22:15:13.159Z,49.60
2018-05-18T22:17:16.698Z,50.40
2018-05-18T22:19:20.917Z,50.80
2018-05-18T22:21:24.409Z,50.70
2018-05-18T22:23:29.917Z,51.10
2018-05-18T22:25:34.057Z,50.60
2018-05-18T22:27:37.482Z,51.60
2018-05-18T22:29:40.876Z,52.20
2018-05-18T22:31:44.345Z,52.30
2018-05-18T22:33:49.030Z,52.30
2018-05-18T22:35:52.491Z,52.30
2018-05-18T22:37:57.027Z,52.40
2018-05-18T22:40:00.415Z,52.70
2018-05-18T22:42:04.672Z,52.70
2018-05-18T22:44:08.090Z,52.80
2018-05-18T22:46:11.475Z,52.90
2018-05-18T22:48:14.821Z,53.80
2018-05-18T22:50:20.243Z,54.00
2018-05-18T22:52:23.744Z,54.40
2018-05-18T22:54:27.244Z,54.90
2018-05-18T22:56:30.712Z,54.70
2018-05-18T22:58:34.971Z,56.10
2018-05-18T23:00:39.547Z,56.10
2018-05-18T23:02:42.985Z,56.80
2018-05-18T23:04:46.373Z,57.60
2018-05-18T23:06:50.482Z,58.20
2018-05-18T23:08:53.861Z,58.30
2018-05-18T23:10:57.261Z,59.30
2018-05-18T23:13:00.620Z,59.80
2018-05-18T23:15:04.036Z,60.70
2018-05-18T23:17:07.440Z,61.80
2018-05-18T23:19:10.928Z,63.70
2018-05-18T23:21:14.385Z,64.90
2018-05-18T23:23:17.738Z,67.10
2018-05-18T23:25:21.223Z,67.40
2018-05-18T23:27:24.762Z,67.30
2018-05-18T23:29:28.119Z,66.70
2018-05-18T23:31:33.395Z,66.90
2018-05-18T23:33:36.809Z,67.00
2018-05-18T23:35:40.367Z,67.00
2018-05-18T23:37:44.534Z,66.90
2018-05-18T23:39:48.067Z,66.90
2018-05-18T23:41:51.503Z,67.30
2018-05-18T23:43:55.014Z,67.40
2018-05-18T23:45:59.222Z,67.90
2018-05-18T23:48:02.669Z,67.90
2018-05-18T23:50:07.979Z,67.60
2018-05-18T23:52:11.429Z,67.90
2018-05-18T23:54:14.806Z,67.70
2018-05-18T23:56:18.965Z,68.30
2018-05-18T23:58:22.344Z,68.30
